Los Lunas PMC

Dec. 17, 2019, 4 p.m.

  • imperial
Air Temperature RH Wind Speed Wind Direction Precipitation Solar Radiation
Date Time Max Min Mean Max Min Max Mean Mean Total Total
US/Mountain F F F % % MPH MPH deg. in. MJ/m^2
2019-12-16 16:00 40.1 38.12 39.38 20.0 18.0 19.91 9.31 345.0 0.0 0.571
2019-12-16 17:00 38.12 33.98 36.68 26.0 19.0 16.6 7.7 347.0 0.0 0.1
2019-12-16 18:00 33.98 31.64 32.9 31.0 26.0 11.21 5.7 343.0 0.0 0.002
2019-12-16 19:00 32.9 28.4 31.1 37.0 30.0 16.31 7.9 351.0 0.0 0.001
2019-12-16 20:00 29.48 25.88 28.22 46.0 37.0 13.8 7.2 358.0 0.0 0.001
2019-12-16 21:00 28.76 24.44 27.14 51.0 43.0 7.09 2.19 336.0 0.0 0.001
2019-12-16 22:00 24.44 20.12 23.18 63.0 51.0 3.4 1.41 132.0 0.0 0.001
2019-12-16 23:00 20.66 18.86 20.12 66.0 62.0 1.21 0.0 14.0 0.0 0.0
2019-12-17 00:00 19.94 16.7 18.32 76.0 65.0 1.7 0.09 93.0 0.0 0.0
2019-12-17 01:00 16.7 15.08 15.98 80.0 76.0 1.79 0.09 125.0 0.0 0.0
2019-12-17 02:00 16.34 14.72 15.62 82.0 77.0 0.0 0.0 0.0 0.0 0.0
2019-12-17 03:00 17.06 15.98 16.16 84.0 80.0 2.1 0.09 124.0 0.0 0.0
2019-12-17 04:00 16.34 15.98 16.16 84.0 84.0 2.39 0.49 100.0 0.0 0.0
2019-12-17 05:00 16.7 16.34 16.52 84.0 81.0 2.71 1.01 75.0 0.0 0.0
2019-12-17 06:00 16.34 14.36 15.26 86.0 81.0 1.1 0.0 24.0 0.0 0.0
2019-12-17 07:00 15.26 14.72 14.9 86.0 84.0 2.71 0.49 172.0 0.0 0.001
2019-12-17 08:00 19.76 14.72 15.62 86.0 80.0 3.11 0.49 181.0 0.0 0.112
2019-12-17 09:00 26.42 19.76 21.92 80.0 60.0 2.71 1.01 148.0 0.0 0.434
2019-12-17 10:00 30.38 26.42 27.14 60.0 50.0 4.61 1.61 76.0 0.0 1.292
2019-12-17 11:00 32.54 30.38 31.64 50.0 39.0 10.4 3.6 41.0 0.0 1.724
2019-12-17 12:00 37.04 32.54 34.16 39.0 28.0 11.5 3.49 25.0 0.0 1.95
2019-12-17 13:00 40.1 36.86 37.58 29.0 26.0 11.1 3.0 340.0 0.0 1.969
2019-12-17 14:00 40.46 38.3 38.84 27.0 24.0 11.61 3.49 339.0 0.0 1.77
2019-12-17 15:00 41.9 39.38 40.64 24.0 20.0 9.31 2.8 330.0 0.0 1.373
2019-12-17 16:00 40.1 39.38 39.92 22.0 21.0 9.91 2.39 327.0 0.0 0.589

Data is presented as is, with no certification of correctness. DO NOT USE IN LEGAL PROCEEDINGS.